»·PEaware :: ENY3400 KPSP-KSFO

ENY3400 :: KPSP-KSFO

FLIGHT INFORMATION

Flight Status: Arrived
Operator: Unknown
More flights by this operator :: More flights under this callsign
Pilot: Chris O. (30024)
Aircraft: EMBRAER EMB-170/175
(E170)
More flights by this aircraft type
Origin: KPSP Palm Springs Intl
United States
Destination: KSFO San Francisco Intl
United States
More flights between these airports :: More routes between these airports
Route: +CATH1 PSP V386 PMD/N0454F300 AVE MAKRS SERFR SERFR4
File this flight plan on PilotEdge
Remarks: RMK / SIMBRIEF
Altitude:
(Current/Filed)
32,000ft
Speed:
(Current/Filed)
366kts
Departed: 19-Nov-20 07:48 PM
Arrived: 19-Nov-20 09:01 PM
Distance/Time
Traveled:
365nm/1:13
Distance/Time
To Go:
Arrived

Flight Plot

Page will automatically refresh every two minutes.

Flight plan parsing failed; only flown route is shown


Map Options




Map Legend


Flown Route
Filed Route
Departure Airport
Arrival Airport
Navaid (VOR, NDB)
Fix

Horizontal Profiles

Position Reports

Time Latitude Longitude Heading Altitude Ground
Speed
19-Nov-20 19:38 33.822788 -116.505906 291 413ft 0kts
19-Nov-20 19:39 33.822788 -116.505906 291 413ft 0kts
19-Nov-20 19:40 33.822776 -116.505869 291 413ft 2kts
19-Nov-20 19:41 33.822463 -116.505314 3 413ft 2kts
19-Nov-20 19:42 33.822283 -116.505461 52 412ft 0kts
19-Nov-20 19:43 33.822304 -116.505426 56 412ft 1kts
19-Nov-20 19:44 33.820716 -116.501744 144 406ft 29kts
19-Nov-20 19:45 33.818499 -116.499064 87 399ft 0kts
19-Nov-20 19:46 33.818567 -116.498465 67 398ft 11kts
19-Nov-20 19:47 33.837911 -116.514981 322 1270ft 194kts
19-Nov-20 19:48 33.888145 -116.554998 326 4522ft 226kts
19-Nov-20 19:49 33.950514 -116.564499 11 7959ft 262kts
19-Nov-20 19:50 34.027477 -116.543634 11 11297ft 313kts
19-Nov-20 19:51 34.124797 -116.523130 354 14777ft 378kts
19-Nov-20 19:52 34.225425 -116.561799 330 18201ft 388kts
19-Nov-20 19:53 34.293886 -116.656660 286 21621ft 385kts
19-Nov-20 19:54 34.328679 -116.780655 286 25051ft 397kts
19-Nov-20 19:55 34.364413 -116.908305 286 28456ft 408kts
19-Nov-20 19:56 34.400028 -117.037093 286 31836ft 384kts
19-Nov-20 19:57 34.432366 -117.151470 286 32156ft 347kts
19-Nov-20 19:58 34.464122 -117.262561 286 32176ft 350kts
19-Nov-20 19:59 34.495514 -117.371871 286 32193ft 342kts
19-Nov-20 20:00 34.526652 -117.480815 287 32195ft 342kts
19-Nov-20 20:01 34.557085 -117.590021 279 32180ft 340kts
19-Nov-20 20:02 34.569106 -117.703882 276 32203ft 341kts
19-Nov-20 20:03 34.581056 -117.818175 276 32192ft 341kts
19-Nov-20 20:04 34.599185 -117.930869 281 32186ft 342kts
19-Nov-20 20:05 34.628195 -118.041079 286 32188ft 343kts
19-Nov-20 20:06 34.678521 -118.140507 301 32192ft 350kts
19-Nov-20 20:07 34.737416 -118.234533 302 32186ft 351kts
19-Nov-20 20:08 34.790359 -118.333567 298 32205ft 365kts
19-Nov-20 20:09 34.846173 -118.441086 298 32216ft 385kts
19-Nov-20 20:10 34.903024 -118.550925 298 32265ft 385kts
19-Nov-20 20:11 34.963415 -118.659256 299 32279ft 388kts
19-Nov-20 20:12 35.026296 -118.767242 300 32286ft 391kts
19-Nov-20 20:13 35.088516 -118.875884 299 32270ft 391kts
19-Nov-20 20:14 35.150359 -118.984955 299 32251ft 390kts
19-Nov-20 20:15 35.212191 -119.093809 299 32245ft 390kts
19-Nov-20 20:16 35.272716 -119.203532 297 32243ft 388kts
19-Nov-20 20:17 35.330931 -119.315201 297 32241ft 388kts
19-Nov-20 20:18 35.389007 -119.426383 297 32241ft 388kts
19-Nov-20 20:19 35.447277 -119.537669 297 32243ft 388kts
19-Nov-20 20:20 35.505473 -119.648896 297 32245ft 387kts
19-Nov-20 20:21 35.556541 -119.764156 292 32260ft 383kts
19-Nov-20 20:22 35.604913 -119.881126 293 32246ft 385kts
19-Nov-20 20:24 35.653865 -119.996457 273 32237ft 376kts
19-Nov-20 20:25 35.663924 -120.124858 277 32225ft 378kts
19-Nov-20 20:26 35.680788 -120.252224 275 32221ft 378kts
19-Nov-20 20:27 35.691938 -120.380375 285 32225ft 381kts
19-Nov-20 20:28 35.746431 -120.494481 292 32217ft 385kts
19-Nov-20 20:29 35.795270 -120.611665 292 32219ft 384kts
19-Nov-20 20:30 35.843771 -120.728685 292 32233ft 384kts
19-Nov-20 20:31 35.892215 -120.845288 292 31989ft 373kts
19-Nov-20 20:32 35.935736 -120.959080 287 30529ft 374kts
19-Nov-20 20:33 35.973020 -121.077723 287 29063ft 367kts
19-Nov-20 20:34 36.010094 -121.194199 287 27581ft 362kts
19-Nov-20 20:35 36.051797 -121.306332 288 26087ft 357kts
19-Nov-20 20:36 36.109484 -121.400041 335 24623ft 384kts
19-Nov-20 20:37 36.208556 -121.443393 331 23133ft 373kts
19-Nov-20 20:38 36.298158 -121.502012 322 21631ft 360kts
19-Nov-20 20:39 36.376878 -121.574772 318 20293ft 345kts
19-Nov-20 20:40 36.453474 -121.647667 318 20260ft 348kts
19-Nov-20 20:40 36.513441 -121.713640 313 19376ft 347kts
19-Nov-20 20:42 36.607974 -121.786231 324 17260ft 339kts
19-Nov-20 20:42 36.674624 -121.837130 324 15919ft 335kts
19-Nov-20 20:44 36.769145 -121.898908 345 14454ft 337kts
19-Nov-20 20:44 36.844728 -121.917706 346 13002ft 329kts
19-Nov-20 20:46 36.947121 -121.948138 339 10715ft 320kts
19-Nov-20 20:46 37.011209 -121.972164 342 9366ft 276kts
19-Nov-20 20:48 37.093352 -122.003301 342 7975ft 259kts
19-Nov-20 20:48 37.151262 -122.025622 342 7978ft 262kts
19-Nov-20 20:49 37.220923 -122.052405 342 7622ft 262kts
19-Nov-20 20:50 37.287869 -122.078006 342 6639ft 225kts
19-Nov-20 20:51 37.343849 -122.099144 342 5552ft 203kts
19-Nov-20 20:52 37.397528 -122.119335 342 4617ft 197kts
19-Nov-20 20:53 37.451913 -122.139828 342 3805ft 204kts
19-Nov-20 20:54 37.505892 -122.160649 342 3007ft 196kts
19-Nov-20 20:55 37.543088 -122.194569 293 2756ft 171kts
19-Nov-20 20:56 37.564206 -122.247492 300 2156ft 154kts
19-Nov-20 20:57 37.584073 -122.292344 300 1256ft 147kts
19-Nov-20 20:58 37.602428 -122.336982 301 428ft 135kts
19-Nov-20 20:59 37.618531 -122.374572 297 19ft 62kts
19-Nov-20 21:00 37.618960 -122.377979 269 26ft 0kts
19-Nov-20 21:01 37.618735 -122.378983 262 28ft 7kts
19-Nov-20 21:02 37.617915 -122.380506 255 30ft 3kts

Navigation Log

Ident Type
Flight plan parsing failed, navigation log unavailable